Haikou Meilan International

Airport
ICAO code: 
ZJHK
IATA Code: 
HAK
Summary
ICAO Region: 
APAC
Territory: 
Location: 
Haikou, Hainan,
Serving: 
Hainan
Coordinates: 
Aerial View: 
19° 56' 4.999" N, 110° 27' 32" E
Metar
Observation
ZJHK 021900Z VRB01MPS CAVOK 12/11 Q1021 NOSIG
Station
HAIKOU
Date/Time
2021-12-02 19:00:00
Lowest cloud amount
clouds and visibility OK
Temperature
12°C
Dew point
11°C
Humidity
93%
QNH
1021 hPa
Weather condition
n/a

Description

Haikou Meilan International Airport is the largest and newest airport on the island of Hainan in the People's Republic of China. It is located 25 km southeast of the main provincial city of Haikou.

Climatology

Within the Köppen Climate Classification System, ((Koppen climate classification Cwa)) this climate type generally has warm and humid summers with mild winters. Its extent is from 30 to 50° of latitude mainly on the eastern and western borders of most continents. During the winter, the main weather feature is the mid-latitude cyclone. Convective thunderstorms provide precipitation in the summer months.

Runways

Designator Length Width Surface Rops
9/27 3600 45 CON Yes/Yes
Airport map: 
Aerial View: 

SKYbrary Partners:

Safety knowledge contributed by: